Time;durP1;ratioP1;P1;durP2;ratioP2;P2;SDS_P1;SDS_P2;PMS_P1;PMS_P2;Temp;Humidity;BMP_temperature;BMP_pressure;BME280_temperature;BME280_humidity;BME280_pressure;Samples;Min_cycle;Max_cycle;Signal;HPM_P1;HPM_P2
2023/08/13 00:00:55;;;;;;;5.80;2.50;;;;;;;19.93;100.00;101792.03;2508709;23;20159;-64
2023/08/13 00:01:56;;;;;;;8.83;2.53;;;;;;;19.87;100.00;101791.88;2509295;23;20305;-64
2023/08/13 00:02:56;;;;;;;4.40;2.40;;;;;;;19.92;100.00;101788.44;2509165;23;20391;-64
2023/08/13 00:03:56;;;;;;;4.67;2.10;;;;;;;19.93;100.00;101790.00;2509194;23;20235;-64
2023/08/13 00:04:57;;;;;;;2.73;2.27;;;;;;;19.93;100.00;101794.84;2509046;23;20155;-63
2023/08/13 00:05:57;;;;;;;5.63;2.70;;;;;;;19.91;100.00;101783.28;2508883;23;20215;-63
2023/08/13 00:06:59;;;;;;;3.50;2.40;;;;;;;19.92;100.00;101787.66;2509099;23;20154;-64
2023/08/13 00:08:00;;;;;;;3.43;2.23;;;;;;;19.93;100.00;101784.38;2508792;23;20500;-64
2023/08/13 00:09:00;;;;;;;3.37;2.20;;;;;;;19.94;100.00;101783.13;2509133;23;20475;-64
2023/08/13 00:10:01;;;;;;;3.80;2.20;;;;;;;19.68;100.00;101739.69;2508726;23;20611;-64
2023/08/13 00:11:08;;;;;;;4.67;2.50;;;;;;;19.95;100.00;101776.25;2509121;23;20163;-64
2023/08/13 00:12:08;;;;;;;2.43;1.87;;;;;;;19.96;100.00;101780.59;2508361;23;20222;-64
2023/08/13 00:13:10;;;;;;;4.03;2.30;;;;;;;19.92;100.00;101791.25;2509130;23;20973;-64
2023/08/13 00:14:11;;;;;;;3.93;2.30;;;;;;;19.87;100.00;101786.25;2509005;23;20163;-64
2023/08/13 00:15:12;;;;;;;4.20;2.10;;;;;;;19.85;100.00;101788.75;2509395;23;20410;-64
2023/08/13 00:16:12;;;;;;;6.67;2.00;;;;;;;19.83;100.00;101779.22;2508667;23;20383;-64
2023/08/13 00:17:13;;;;;;;2.93;1.87;;;;;;;19.85;100.00;101791.56;2508990;23;20525;-64
2023/08/13 00:18:13;;;;;;;5.07;2.67;;;;;;;19.65;100.00;101759.53;2509055;23;20174;-65
2023/08/13 00:19:15;;;;;;;5.00;2.30;;;;;;;19.80;100.00;101786.56;2509279;23;20211;-64
2023/08/13 00:20:15;;;;;;;7.63;2.50;;;;;;;19.38;100.00;101740.59;2508582;23;20152;-65
2023/08/13 00:21:16;;;;;;;5.23;2.53;;;;;;;19.75;100.00;101789.22;2509369;23;20952;-64
2023/08/13 00:22:16;;;;;;;4.37;2.30;;;;;;;19.60;100.00;101766.53;2508667;23;20151;-64
2023/08/13 00:23:17;;;;;;;7.07;2.67;;;;;;;19.71;100.00;101791.41;2509203;23;20162;-63
2023/08/13 00:24:17;;;;;;;5.50;2.73;;;;;;;19.63;100.00;101779.66;2508211;23;20156;-64
2023/08/13 00:25:17;;;;;;;5.13;2.57;;;;;;;19.64;100.00;101784.03;2509280;23;20226;-64
2023/08/13 00:26:18;;;;;;;5.60;2.30;;;;;;;19.58;100.00;101783.09;2507937;23;20159;-64
2023/08/13 00:27:18;;;;;;;5.10;2.23;;;;;;;19.63;100.00;101790.13;2508978;23;20207;-64
2023/08/13 00:28:19;;;;;;;3.63;2.23;;;;;;;19.64;100.00;101794.50;2509007;23;20210;-64
2023/08/13 00:29:19;;;;;;;6.43;2.30;;;;;;;19.64;100.00;101797.31;2509252;23;20157;-64
2023/08/13 00:30:20;;;;;;;5.20;2.33;;;;;;;18.67;100.00;101637.22;2508674;23;20171;-64
2023/08/13 00:31:20;;;;;;;5.40;2.70;;;;;;;19.63;100.00;101790.13;2509038;23;20304;-64
2023/08/13 00:32:21;;;;;;;4.23;2.27;;;;;;;19.63;100.00;101790.91;2508367;23;20205;-64
2023/08/13 00:33:21;;;;;;;3.37;2.40;;;;;;;19.55;100.00;101780.44;2509258;23;20218;-63
2023/08/13 00:34:22;;;;;;;3.43;2.27;;;;;;;19.56;100.00;101782.78;2508906;23;20162;-64
2023/08/13 00:35:22;;;;;;;5.43;2.40;;;;;;;19.51;100.00;101779.81;2509272;23;20150;-64
2023/08/13 00:36:22;;;;;;;6.53;2.60;;;;;;;19.58;100.00;101787.94;2508521;23;20148;-64
2023/08/13 00:37:23;;;;;;;7.93;2.20;;;;;;;19.58;100.00;101787.94;2508811;23;20650;-64
2023/08/13 00:38:23;;;;;;;9.40;2.07;;;;;;;19.31;100.00;101765.41;2508818;23;20192;-64
2023/08/13 00:39:24;;;;;;;5.70;2.20;;;;;;;19.40;100.00;101785.88;2509217;23;20151;-64
2023/08/13 00:40:24;;;;;;;4.73;2.17;;;;;;;19.43;100.00;101796.19;2508043;23;20228;-64
2023/08/13 00:41:25;;;;;;;4.43;2.20;;;;;;;19.33;100.00;101774.94;2508860;23;20184;-63
2023/08/13 00:42:25;;;;;;;3.40;2.40;;;;;;;19.44;100.00;101794.16;2507905;23;20203;-64
2023/08/13 00:43:26;;;;;;;5.87;2.37;;;;;;;19.44;100.00;101794.16;2508474;23;20162;-64
2023/08/13 00:44:26;;;;;;;4.67;2.30;;;;;;;19.35;100.00;101786.47;2508819;23;20160;-64
2023/08/13 00:45:26;;;;;;;4.20;2.20;;;;;;;19.37;100.00;101789.63;2509191;23;20594;-64
2023/08/13 00:46:27;;;;;;;5.30;2.33;;;;;;;19.40;100.00;101794.28;2508331;23;20590;-64
2023/08/13 00:47:28;;;;;;;4.27;2.40;;;;;;;19.40;100.00;101799.91;2508923;23;20197;-64
2023/08/13 00:48:29;;;;;;;4.30;2.50;;;;;;;19.42;100.00;101796.66;2508739;23;20237;-63
2023/08/13 00:49:29;;;;;;;5.47;1.97;;;;;;;19.41;100.00;101797.91;2509169;23;20380;-64
2023/08/13 00:50:30;;;;;;;3.83;2.10;;;;;;;19.42;100.00;101794.63;2508434;23;20158;-64
2023/08/13 00:51:31;;;;;;;3.33;2.07;;;;;;;19.44;100.00;101791.38;2508429;23;20151;-64
2023/08/13 00:52:32;;;;;;;4.53;2.33;;;;;;;19.37;100.00;101780.41;2508597;23;20160;-64
2023/08/13 00:53:44;;;;;;;4.03;2.33;;;;;;;19.40;100.00;101810.41;2509035;23;20204;-64
2023/08/13 00:54:45;;;;;;;4.83;2.50;;;;;;;19.40;100.00;101793.53;2519704;23;20505;-64
2023/08/13 00:55:45;;;;;;;3.20;2.60;;;;;;;19.39;100.00;101795.56;2520578;23;20442;-63
2023/08/13 00:56:46;;;;;;;6.43;2.80;;;;;;;19.37;100.00;101795.25;2520529;23;20159;-64
2023/08/13 00:57:48;;;;;;;5.70;2.77;;;;;;;19.41;100.00;101795.09;2520577;23;20154;-63
2023/08/13 00:58:49;;;;;;;4.93;2.57;;;;;;;19.41;100.00;101792.28;2520835;23;20390;-64
2023/08/13 00:59:53;;;;;;;4.63;2.43;;;;;;;19.27;100.00;101776.00;2520547;23;20878;-64
2023/08/13 01:00:53;;;;;;;4.93;2.07;;;;;;;19.42;100.00;101788.22;2520808;23;20390;-64
2023/08/13 01:01:53;;;;;;;4.00;2.43;;;;;;;19.35;100.00;101786.47;2520869;23;20395;-64
2023/08/13 01:02:54;;;;;;;3.80;2.37;;;;;;;19.36;100.00;101790.88;2520561;23;20154;-64
2023/08/13 01:03:54;;;;;;;3.33;2.40;;;;;;;18.63;100.00;101681.50;2521014;23;20162;-64
2023/08/13 01:04:55;;;;;;;3.40;2.23;;;;;;;19.31;100.00;101782.25;2520657;23;20154;-64
2023/08/13 01:06:06;;;;;;;5.50;2.50;;;;;;;19.38;100.00;101791.19;2520397;23;20618;-64
2023/08/13 01:07:16;;;;;;;4.53;2.40;;;;;;;19.36;100.00;101788.06;2520652;23;20334;-63
2023/08/13 01:08:19;;;;;;;3.50;2.47;;;;;;;19.38;100.00;101793.19;2520550;23;20848;-63
2023/08/13 01:09:52;;;;;;;6.87;2.60;;;;;;;19.38;100.00;101796.81;2520413;23;20698;-64
2023/08/13 01:11:03;;;;;;;4.43;2.60;;;;;;;19.37;100.00;101791.63;2510480;23;20457;-63
2023/08/13 01:12:32;;;;;;;3.73;2.40;;;;;;;19.33;100.00;101782.56;2520879;23;20368;-64
2023/08/13 01:13:47;;;;;;;3.90;2.00;;;;;;;18.43;100.00;101651.00;2520504;23;20849;-64
2023/08/13 01:15:08;;;;;;;5.87;2.33;;;;;;;19.28;100.00;101791.59;2520867;23;20374;-64
2023/08/13 01:16:09;;;;;;;10.40;2.53;;;;;;;19.22;100.00;101793.47;2520272;23;20384;-64
2023/08/13 01:17:11;;;;;;;2.70;2.27;;;;;;;18.73;100.00;101723.19;2520559;23;20804;-64
2023/08/13 01:18:13;;;;;;;3.77;2.30;;;;;;;18.76;100.00;101727.09;2520754;23;20387;-64
2023/08/13 01:19:14;;;;;;;6.20;2.60;;;;;;;19.21;100.00;101805.94;2520896;23;20486;-64
2023/08/13 01:20:15;;;;;;;5.00;2.37;;;;;;;19.17;100.00;101805.28;2520219;23;20447;-64
2023/08/13 01:21:15;;;;;;;3.23;2.10;;;;;;;19.21;100.00;101795.47;2521119;23;20177;-64
2023/08/13 01:22:16;;;;;;;3.23;2.33;;;;;;;19.17;100.00;101796.84;2508052;23;20342;-64
2023/08/13 01:23:16;;;;;;;3.40;2.37;;;;;;;19.18;100.00;101796.41;2507561;23;20163;-64
2023/08/13 01:24:17;;;;;;;4.93;2.50;;;;;;;19.18;100.00;101793.59;2520325;23;20158;-63
2023/08/13 01:25:18;;;;;;;3.97;2.60;;;;;;;18.78;100.00;101733.06;2520790;23;20154;-64
2023/08/13 01:26:24;;;;;;;3.77;2.00;;;;;;;19.19;100.00;101803.56;2520093;23;20174;-64
2023/08/13 01:27:37;;;;;;;4.07;2.40;;;;;;;18.63;100.00;101718.78;2520814;23;20398;-65
2023/08/13 01:29:02;;;;;;;4.50;2.90;;;;;;;18.67;100.00;101721.47;2520595;23;20363;-64
2023/08/13 01:30:24;;;;;;;4.23;2.13;;;;;;;19.10;100.00;101791.53;2500739;23;20477;-64
2023/08/13 01:31:34;;;;;;;3.17;2.00;;;;;;;19.07;100.00;101804.47;2520061;23;20904;-63
2023/08/13 01:32:42;;;;;;;2.83;2.10;;;;;;;19.09;100.00;101799.16;2520654;23;20795;-64
2023/08/13 01:33:45;;;;;;;5.50;2.37;;;;;;;19.09;100.00;101801.97;2520685;23;20833;-64
2023/08/13 01:34:47;;;;;;;4.50;2.27;;;;;;;19.11;100.00;101796.69;2520584;23;20414;-64
2023/08/13 01:35:48;;;;;;;5.07;2.50;;;;;;;19.13;100.00;101804.66;2520024;23;20773;-64
2023/08/13 01:36:49;;;;;;;4.43;2.30;;;;;;;19.13;100.00;101802.63;2520568;23;20489;-64
2023/08/13 01:37:50;;;;;;;3.30;2.37;;;;;;;19.12;100.00;101806.69;2520066;23;20179;-63
2023/08/13 01:38:55;;;;;;;6.93;2.90;;;;;;;19.11;100.00;101796.69;2520648;23;20490;-65
2023/08/13 01:39:56;;;;;;;4.07;2.27;;;;;;;18.33;100.00;101671.09;2520322;23;20401;-64
2023/08/13 01:40:59;;;;;;;5.00;2.33;;;;;;;18.35;100.00;101677.00;2520736;23;20390;-63
2023/08/13 01:42:00;;;;;;;4.37;2.53;;;;;;;19.08;100.00;101794.81;2520849;23;20157;-63
2023/08/13 01:43:00;;;;;;;5.57;2.33;;;;;;;19.10;100.00;101797.94;2520614;23;20397;-64
2023/08/13 01:44:01;;;;;;;3.70;2.50;;;;;;;19.14;100.00;101797.81;2520650;23;20233;-64
2023/08/13 01:45:01;;;;;;;5.00;2.67;;;;;;;19.08;100.00;101783.56;2520335;23;20155;-64
2023/08/13 01:46:02;;;;;;;3.30;2.57;;;;;;;19.16;100.00;101829.00;2520191;23;20185;-64
2023/08/13 01:47:02;;;;;;;5.50;2.57;;;;;;;19.12;100.00;101803.88;2520674;23;20239;-64
2023/08/13 01:48:03;;;;;;;4.53;2.10;;;;;;;19.13;100.00;101799.06;2520411;23;20213;-64
2023/08/13 01:49:04;;;;;;;3.47;2.10;;;;;;;18.98;100.00;101784.00;2520815;23;20210;-64
2023/08/13 01:50:04;;;;;;;5.10;2.20;;;;;;;18.66;100.00;101729.09;2520392;23;20151;-64
2023/08/13 01:51:05;;;;;;;5.00;2.37;;;;;;;19.11;100.00;101802.31;2520716;23;20298;-64
2023/08/13 01:52:05;;;;;;;4.67;2.20;;;;;;;19.11;100.00;101799.50;2519830;23;20557;-64
2023/08/13 01:53:06;;;;;;;3.60;2.30;;;;;;;18.91;100.00;101785.06;2520702;23;20428;-64
2023/08/13 01:54:07;;;;;;;2.47;2.27;;;;;;;19.13;100.00;101799.81;2520395;23;20159;-64
2023/08/13 01:55:08;;;;;;;6.27;2.53;;;;;;;19.11;100.00;101804.34;2520265;23;20155;-64
2023/08/13 01:56:08;;;;;;;3.67;2.47;;;;;;;19.09;100.00;101801.22;2520244;23;20513;-64
2023/08/13 01:57:09;;;;;;;3.43;2.53;;;;;;;19.09;100.00;101801.97;2520414;23;20498;-63
2023/08/13 01:58:10;;;;;;;4.37;2.20;;;;;;;18.66;100.00;101737.53;2520585;23;20155;-64
2023/08/13 01:59:10;;;;;;;2.87;2.20;;;;;;;19.05;100.00;101798.56;2520650;23;20158;-64
2023/08/13 02:00:12;;;;;;;4.13;1.90;;;;;;;18.89;100.00;101798.78;2520352;23;20159;-64
2023/08/13 02:01:12;;;;;;;5.33;2.40;;;;;;;18.96;100.00;101803.34;2520719;23;20154;-63
2023/08/13 02:02:13;;;;;;;6.73;2.50;;;;;;;18.17;100.00;101689.69;2520757;23;20417;-63
2023/08/13 02:03:13;;;;;;;5.00;2.20;;;;;;;18.96;100.00;101808.94;2520727;23;20151;-64
2023/08/13 02:04:14;;;;;;;4.93;2.40;;;;;;;18.95;100.00;101805.38;2520662;23;20178;-63
2023/08/13 02:05:14;;;;;;;3.57;2.50;;;;;;;18.97;100.00;101810.50;2520399;23;20155;-64
2023/08/13 02:06:15;;;;;;;3.67;2.30;;;;;;;18.59;100.00;101757.47;2519226;23;20230;-64
2023/08/13 02:07:15;;;;;;;4.07;2.47;;;;;;;18.96;100.00;101808.94;2520707;23;20407;-64
2023/08/13 02:08:15;;;;;;;4.50;2.93;;;;;;;18.98;100.00;101810.06;2520543;23;20553;-63
2023/08/13 02:09:16;;;;;;;6.77;2.60;;;;;;;18.99;100.00;101813.66;2520644;23;20229;-63
2023/08/13 02:10:16;;;;;;;7.27;2.70;;;;;;;18.95;100.00;101807.38;2520226;23;20151;-64
2023/08/13 02:11:17;;;;;;;3.77;2.67;;;;;;;18.98;100.00;101814.91;2520709;23;20158;-64
2023/08/13 02:12:17;;;;;;;8.03;3.23;;;;;;;18.93;100.00;101801.47;2520549;23;20147;-64
2023/08/13 02:13:17;;;;;;;3.67;2.80;;;;;;;18.92;100.00;101802.69;2520670;23;20158;-64
2023/08/13 02:14:18;;;;;;;5.63;2.77;;;;;;;18.97;100.00;101804.88;2520411;23;20177;-64
2023/08/13 02:15:18;;;;;;;8.77;3.10;;;;;;;18.98;100.00;101810.06;2520352;23;20206;-64
2023/08/13 02:16:19;;;;;;;5.17;2.60;;;;;;;18.96;100.00;101820.97;2520059;23;20158;-64
2023/08/13 02:17:19;;;;;;;5.67;2.90;;;;;;;18.74;100.00;101771.72;2520503;23;20185;-64
2023/08/13 02:18:19;;;;;;;5.03;2.77;;;;;;;18.96;100.00;101806.13;2520542;23;20147;-63
2023/08/13 02:19:20;;;;;;;6.83;2.67;;;;;;;18.93;100.00;101804.28;2520800;23;20582;-64
2023/08/13 02:20:20;;;;;;;5.70;2.63;;;;;;;18.94;100.00;101803.78;2519595;23;20583;-63
2023/08/13 02:21:22;;;;;;;4.30;2.60;;;;;;;18.94;100.00;101809.41;2508090;23;20573;-63
2023/08/13 02:22:22;;;;;;;4.33;2.87;;;;;;;18.94;100.00;101798.16;2507959;23;20148;-64
2023/08/13 02:23:23;;;;;;;4.47;2.47;;;;;;;18.93;100.00;101795.84;2520804;23;20407;-63
2023/08/13 02:24:23;;;;;;;5.07;2.90;;;;;;;18.87;100.00;101789.25;2520808;23;20151;-64
2023/08/13 02:25:24;;;;;;;6.47;2.90;;;;;;;18.84;100.00;101804.22;2520657;23;20147;-64
2023/08/13 02:26:24;;;;;;;7.10;2.87;;;;;;;18.82;100.00;101803.88;2519527;23;20158;-64
2023/08/13 02:27:24;;;;;;;4.97;2.53;;;;;;;18.80;100.00;101803.56;2520533;23;20183;-64
2023/08/13 02:28:25;;;;;;;5.23;3.10;;;;;;;18.78;100.00;101804.03;2520466;23;20155;-63
2023/08/13 02:29:25;;;;;;;6.30;2.40;;;;;;;18.74;100.00;101800.59;2520762;23;20217;-64
2023/08/13 02:30:25;;;;;;;5.60;2.40;;;;;;;18.72;100.00;101799.50;2520101;23;20154;-64
2023/08/13 02:31:26;;;;;;;7.93;2.90;;;;;;;18.72;100.00;101802.31;2520630;23;20321;-64
2023/08/13 02:32:26;;;;;;;4.63;2.67;;;;;;;18.74;100.00;101799.81;2520440;23;20252;-63
2023/08/13 02:33:27;;;;;;;6.90;2.90;;;;;;;18.73;100.00;101809.47;2520910;23;20158;-64
2023/08/13 02:34:33;;;;;;;4.70;2.57;;;;;;;18.69;100.00;101804.00;2519186;23;20230;-64
2023/08/13 02:35:33;;;;;;;4.37;2.57;;;;;;;18.57;100.00;101795.66;2520817;23;20194;-64
2023/08/13 02:36:34;;;;;;;6.67;3.00;;;;;;;18.40;100.00;101775.44;2519510;23;20867;-64
2023/08/13 02:37:35;;;;;;;3.73;2.50;;;;;;;18.71;100.00;101811.94;2520386;23;20552;-64
2023/08/13 02:38:35;;;;;;;3.50;2.57;;;;;;;18.71;100.00;101814.75;2520458;23;20163;-63
2023/08/13 02:39:36;;;;;;;4.40;2.70;;;;;;;18.60;100.00;101794.72;2520772;23;20389;-64
2023/08/13 02:40:36;;;;;;;4.70;2.80;;;;;;;18.61;100.00;101799.09;2520279;23;20633;-64
2023/08/13 02:41:37;;;;;;;4.77;2.70;;;;;;;18.70;100.00;101805.56;2507833;23;20178;-64
2023/08/13 02:42:37;;;;;;;5.10;2.40;;;;;;;18.72;100.00;101813.53;2508104;23;20238;-64
2023/08/13 02:43:50;;;;;;;4.83;2.40;;;;;;;18.71;100.00;101812.75;2520516;23;20156;-64
2023/08/13 02:44:50;;;;;;;4.67;3.07;;;;;;;18.72;100.00;101811.50;2520531;23;20610;-64
2023/08/13 02:45:51;;;;;;;3.83;2.53;;;;;;;18.71;100.00;101812.75;2520243;23;20730;-64
2023/08/13 02:46:51;;;;;;;4.20;2.90;;;;;;;18.67;100.00;101811.31;2520038;23;20157;-63
2023/08/13 02:47:51;;;;;;;4.23;2.40;;;;;;;18.67;100.00;101819.75;2520916;23;20218;-64
2023/08/13 02:48:54;;;;;;;4.67;2.57;;;;;;;18.68;100.00;101821.31;2520584;23;20234;-64
2023/08/13 02:49:54;;;;;;;5.60;2.40;;;;;;;18.60;100.00;101817.97;2521030;23;20159;-63
2023/08/13 02:50:55;;;;;;;3.20;2.53;;;;;;;18.57;100.00;101818.88;2521324;23;20381;-64
2023/08/13 02:51:55;;;;;;;2.93;2.43;;;;;;;18.55;100.00;101823.38;2521458;23;20159;-63
2023/08/13 02:52:56;;;;;;;5.10;2.83;;;;;;;17.55;100.00;101673.19;2521473;23;20154;-64
2023/08/13 02:53:56;;;;;;;6.83;2.80;;;;;;;18.50;100.00;101821.19;2520881;23;20157;-64
2023/08/13 02:54:56;;;;;;;6.30;2.77;;;;;;;18.50;100.00;101829.59;2521485;23;20154;-64
2023/08/13 02:55:57;;;;;;;6.07;3.00;;;;;;;18.53;100.00;101828.69;2520963;23;20171;-64
2023/08/13 02:56:59;;;;;;;7.93;3.10;;;;;;;18.43;100.00;101811.00;2520734;23;20179;-64
2023/08/13 02:57:59;;;;;;;5.93;2.73;;;;;;;18.03;100.00;101745.53;2521242;23;20161;-64
2023/08/13 02:59:18;;;;;;;5.77;2.77;;;;;;;18.54;100.00;101830.25;2521349;23;20465;-63
2023/08/13 03:00:19;;;;;;;4.47;2.50;;;;;;;18.48;100.00;101830.03;2520934;23;20209;-64
2023/08/13 03:01:19;;;;;;;8.23;2.80;;;;;;;18.34;100.00;101813.75;2521531;23;20379;-63
2023/08/13 03:02:20;;;;;;;6.33;2.60;;;;;;;17.38;100.00;101671.78;2521319;23;20614;-64
2023/08/13 03:03:20;;;;;;;6.83;2.97;;;;;;;18.33;100.00;101829.03;2520855;23;20174;-64
2023/08/13 03:04:20;;;;;;;4.60;2.60;;;;;;;18.24;100.00;101814.91;2520880;23;20154;-64
2023/08/13 03:05:21;;;;;;;4.93;2.57;;;;;;;18.33;100.00;101829.03;2521408;23;20170;-63
2023/08/13 03:06:22;;;;;;;8.63;3.30;;;;;;;18.31;100.00;101828.66;2520534;23;20374;-64
2023/08/13 03:07:23;;;;;;;4.23;2.90;;;;;;;18.28;100.00;101835.19;2520816;23;20198;-64
2023/08/13 03:08:23;;;;;;;4.83;2.67;;;;;;;18.28;100.00;101838.78;2521103;23;20410;-64
2023/08/13 03:09:24;;;;;;;6.03;2.97;;;;;;;18.28;100.00;101830.34;2521448;23;20147;-64
2023/08/13 03:10:24;;;;;;;5.33;2.60;;;;;;;18.27;100.00;101824.44;2520862;23;20151;-64
2023/08/13 03:11:25;;;;;;;9.33;2.80;;;;;;;18.27;100.00;101831.59;2521478;23;20155;-65
2023/08/13 03:12:25;;;;;;;8.23;2.87;;;;;;;18.23;100.00;101829.38;2521205;23;20219;-64
2023/08/13 03:13:26;;;;;;;5.90;3.07;;;;;;;18.15;100.00;101820.44;2508747;23;20159;-63
2023/08/13 03:14:26;;;;;;;4.30;3.00;;;;;;;17.63;100.00;101755.81;2508429;23;20159;-63
2023/08/13 03:15:27;;;;;;;6.80;2.73;;;;;;;18.11;100.00;101830.22;2521482;23;20188;-64
2023/08/13 03:16:27;;;;;;;7.67;3.07;;;;;;;18.12;100.00;101829.75;2520769;23;20151;-64
2023/08/13 03:17:28;;;;;;;10.40;2.83;;;;;;;17.72;100.00;101766.31;2519816;23;20544;-64
2023/08/13 03:18:29;;;;;;;5.87;2.80;;;;;;;18.13;100.00;101843.31;2521205;23;20608;-64
2023/08/13 03:19:30;;;;;;;6.23;3.33;;;;;;;18.13;100.00;101829.28;2521432;23;20202;-64
2023/08/13 03:20:30;;;;;;;14.40;4.00;;;;;;;18.16;100.00;101841.63;2520767;23;20414;-64
2023/08/13 03:21:31;;;;;;;13.50;3.60;;;;;;;18.13;100.00;101834.16;2521549;23;20158;-64
2023/08/13 03:22:31;;;;;;;11.47;3.60;;;;;;;18.16;100.00;101838.06;2521127;23;20154;-64
2023/08/13 03:23:32;;;;;;;7.70;3.30;;;;;;;18.16;100.00;101832.44;2521480;23;20159;-63
2023/08/13 03:24:32;;;;;;;8.30;2.80;;;;;;;18.14;100.00;101827.28;2520998;23;20163;-64
2023/08/13 03:25:33;;;;;;;6.30;3.00;;;;;;;18.08;100.00;101821.47;2521525;23;20181;-63
2023/08/13 03:26:33;;;;;;;7.00;2.90;;;;;;;18.18;100.00;101845.56;2520387;23;20172;-64
2023/08/13 03:27:34;;;;;;;6.37;2.70;;;;;;;18.14;100.00;101833.66;2520831;23;20161;-64
2023/08/13 03:28:34;;;;;;;7.23;2.40;;;;;;;18.23;100.00;101846.22;2521169;23;20158;-63
2023/08/13 03:29:34;;;;;;;7.30;2.93;;;;;;;18.23;100.00;101837.78;2521151;23;20493;-64
2023/08/13 03:30:35;;;;;;;6.27;2.73;;;;;;;18.17;100.00;101834.78;2520866;23;20154;-64
2023/08/13 03:31:35;;;;;;;7.17;3.00;;;;;;;18.23;100.00;101833.75;2521038;23;20158;-64
2023/08/13 03:32:36;;;;;;;7.27;2.90;;;;;;;18.27;100.00;101844.06;2521298;23;20182;-64
2023/08/13 03:33:36;;;;;;;6.37;2.97;;;;;;;18.27;100.00;101844.06;2521202;23;20155;-64
2023/08/13 03:34:37;;;;;;;6.97;2.90;;;;;;;18.14;100.00;101819.63;2521151;23;20238;-64
2023/08/13 03:35:38;;;;;;;7.27;2.63;;;;;;;18.28;100.00;101840.81;2521313;23;20297;-64
2023/08/13 03:36:38;;;;;;;6.27;3.17;;;;;;;18.28;100.00;101835.97;2520487;23;20210;-64
2023/08/13 03:37:38;;;;;;;5.50;3.10;;;;;;;18.27;100.00;101830.03;2520813;23;20892;-64
2023/08/13 03:38:39;;;;;;;9.13;3.50;;;;;;;18.14;100.00;101833.66;2520716;23;20151;-64
2023/08/13 03:39:39;;;;;;;8.70;3.83;;;;;;;18.18;100.00;101839.94;2521365;23;20151;-64
2023/08/13 03:40:40;;;;;;;8.20;3.30;;;;;;;18.15;100.00;101837.28;2507981;23;20222;-64
2023/08/13 03:41:40;;;;;;;7.00;3.37;;;;;;;18.16;100.00;101833.22;2508663;23;20181;-64
2023/08/13 03:42:40;;;;;;;9.90;3.30;;;;;;;18.18;100.00;101833.56;2521139;23;20234;-64
2023/08/13 03:43:41;;;;;;;6.00;2.83;;;;;;;18.19;100.00;101844.31;2521124;23;20151;-64
2023/08/13 03:44:41;;;;;;;5.00;3.10;;;;;;;18.09;100.00;101816.66;2521214;23;20156;-64
2023/08/13 03:45:42;;;;;;;6.43;3.03;;;;;;;18.19;100.00;101846.34;2521139;23;20488;-64
2023/08/13 03:46:43;;;;;;;8.10;3.30;;;;;;;18.19;100.00;101835.88;2519997;23;20570;-63
2023/08/13 03:47:43;;;;;;;5.23;3.03;;;;;;;18.22;100.00;101848.22;2520985;23;20161;-64
2023/08/13 03:48:44;;;;;;;6.70;2.80;;;;;;;18.23;100.00;101841.41;2520790;23;20179;-63
2023/08/13 03:49:45;;;;;;;6.00;3.30;;;;;;;18.25;100.00;101838.91;2521156;23;20238;-64
2023/08/13 03:50:45;;;;;;;5.97;3.23;;;;;;;18.27;100.00;101844.06;2520722;23;20491;-64
2023/08/13 03:51:45;;;;;;;4.10;2.73;;;;;;;17.94;100.00;101796.72;2521158;23;20565;-63
2023/08/13 03:52:46;;;;;;;6.20;3.00;;;;;;;18.31;100.00;101842.69;2521179;23;20539;-64
2023/08/13 03:53:46;;;;;;;4.27;2.90;;;;;;;18.32;100.00;101841.47;2521103;23;20300;-64
2023/08/13 03:54:47;;;;;;;4.10;2.70;;;;;;;18.33;100.00;101845.88;2508271;23;20671;-64
2023/08/13 03:55:47;;;;;;;5.73;3.10;;;;;;;18.26;100.00;101831.28;2508097;23;20155;-64
2023/08/13 03:56:48;;;;;;;4.70;2.87;;;;;;;18.35;100.00;101842.59;2508072;23;20152;-64
2023/08/13 03:57:52;;;;;;;7.43;2.83;;;;;;;18.34;100.00;101853.03;2508195;23;20155;-64
2023/08/13 03:58:52;;;;;;;4.63;2.67;;;;;;;18.35;100.00;101851.81;2508644;23;20155;-64
2023/08/13 03:59:52;;;;;;;5.37;2.90;;;;;;;18.35;100.00;101854.59;2508826;23;20423;-64
2023/08/13 04:00:53;;;;;;;6.83;2.70;;;;;;;18.38;100.00;101853.69;2508609;23;20153;-64
2023/08/13 04:01:53;;;;;;;6.43;3.00;;;;;;;18.41;100.00;101858.38;2509394;23;20594;-63
2023/08/13 04:02:54;;;;;;;5.00;2.77;;;;;;;18.11;100.00;101814.16;2509081;23;20152;-64
2023/08/13 04:03:54;;;;;;;5.90;2.63;;;;;;;18.41;100.00;101854.78;2509436;23;20162;-64
2023/08/13 04:04:54;;;;;;;4.27;2.80;;;;;;;18.44;100.00;101867.91;2509238;23;20234;-64
2023/08/13 04:05:55;;;;;;;3.63;2.50;;;;;;;18.25;100.00;101830.50;2508761;23;20156;-64
2023/08/13 04:06:55;;;;;;;4.30;2.67;;;;;;;18.35;100.00;101836.97;2508983;23;20183;-64
2023/08/13 04:07:56;;;;;;;3.43;2.57;;;;;;;18.48;100.00;101862.97;2509013;23;20601;-64
2023/08/13 04:08:56;;;;;;;4.47;2.70;;;;;;;18.51;100.00;101860.03;2508765;23;20152;-64
2023/08/13 04:09:57;;;;;;;3.80;2.90;;;;;;;18.52;100.00;101861.59;2508741;23;20250;-64
2023/08/13 04:10:57;;;;;;;4.27;2.83;;;;;;;18.52;100.00;101860.81;2509356;23;20152;-64
2023/08/13 04:11:58;;;;;;;5.03;2.83;;;;;;;17.98;100.00;101771.38;2509006;23;20155;-64
2023/08/13 04:13:00;;;;;;;5.97;3.20;;;;;;;18.56;100.00;101862.25;2509110;23;20235;-64
2023/08/13 04:14:00;;;;;;;4.40;2.80;;;;;;;18.51;100.00;101850.81;2509064;23;20152;-64
2023/08/13 04:15:03;;;;;;;4.80;3.47;;;;;;;18.61;100.00;101864.47;2508680;23;20399;-64
2023/08/13 04:16:03;;;;;;;6.10;3.30;;;;;;;17.90;100.00;101752.47;2508425;23;20155;-64
2023/08/13 04:17:03;;;;;;;7.07;2.87;;;;;;;18.62;100.00;101863.22;2509116;23;20918;-64
2023/08/13 04:18:04;;;;;;;6.53;3.33;;;;;;;18.64;100.00;101871.19;2509122;23;20179;-64
2023/08/13 04:19:05;;;;;;;5.20;3.10;;;;;;;18.66;100.00;101869.50;2509023;23;20156;-63
2023/08/13 04:20:07;;;;;;;11.03;3.43;;;;;;;18.65;100.00;101861.50;2508675;23;20155;-64
2023/08/13 04:21:08;;;;;;;10.20;3.70;;;;;;;18.53;100.00;101857.53;2508988;23;20160;-64
2023/08/13 04:22:08;;;;;;;13.87;5.73;;;;;;;18.62;100.00;101866.03;2509185;23;20539;-64
2023/08/13 04:23:08;;;;;;;11.77;5.10;;;;;;;18.60;100.00;101870.53;2509187;23;20160;-64
2023/08/13 04:24:09;;;;;;;17.10;5.93;;;;;;;18.56;100.00;101869.88;2509173;23;20231;-64
2023/08/13 04:25:09;;;;;;;13.47;4.50;;;;;;;18.54;100.00;101867.53;2509126;23;20622;-64
2023/08/13 04:26:10;;;;;;;22.27;6.20;;;;;;;18.55;100.00;101885.16;2508710;23;20155;-64
2023/08/13 04:27:10;;;;;;;19.20;6.40;;;;;;;18.54;100.00;101875.16;2508832;23;20155;-63
2023/08/13 04:28:11;;;;;;;13.13;5.50;;;;;;;18.52;100.00;101875.63;2509118;23;20587;-63
2023/08/13 04:29:11;;;;;;;14.73;4.57;;;;;;;18.43;100.00;101869.94;2508457;23;20562;-64
2023/08/13 04:30:12;;;;;;;6.20;3.60;;;;;;;18.46;100.00;101873.84;2508187;23;20694;-64
2023/08/13 04:31:12;;;;;;;6.47;3.10;;;;;;;18.37;100.00;101860.53;2509051;23;20302;-64
2023/08/13 04:32:13;;;;;;;5.50;2.87;;;;;;;18.45;100.00;101875.91;2509112;23;20416;-64
2023/08/13 04:33:13;;;;;;;4.57;3.20;;;;;;;18.44;100.00;101873.53;2509181;23;20152;-64
2023/08/13 04:34:13;;;;;;;4.90;2.63;;;;;;;17.68;100.00;101756.00;2509003;23;20148;-63
2023/08/13 04:35:14;;;;;;;6.07;2.90;;;;;;;18.44;100.00;101876.34;2509245;23;20148;-63
2023/08/13 04:36:15;;;;;;;7.17;3.37;;;;;;;18.48;100.00;101877.75;2508524;23;20499;-64
2023/08/13 04:37:15;;;;;;;6.03;2.83;;;;;;;18.49;100.00;101873.75;2509123;23;20395;-64
2023/08/13 04:38:15;;;;;;;7.07;3.27;;;;;;;18.48;100.00;101879.81;2508779;23;20609;-64
2023/08/13 04:39:16;;;;;;;6.70;3.10;;;;;;;18.41;100.00;101871.63;2509309;23;20196;-64
2023/08/13 04:40:17;;;;;;;6.77;3.00;;;;;;;18.47;100.00;101886.66;2508176;23;20562;-64
2023/08/13 04:41:18;;;;;;;7.83;3.10;;;;;;;18.46;100.00;101882.28;2509257;23;20156;-63
2023/08/13 04:42:18;;;;;;;12.40;4.00;;;;;;;18.45;100.00;101873.09;2508891;23;20387;-64
2023/08/13 04:43:19;;;;;;;7.67;3.40;;;;;;;18.45;100.00;101881.50;2508928;23;20599;-64